Time;durP1;ratioP1;P1;durP2;ratioP2;P2;SDS_P1;SDS_P2;PMS_P1;PMS_P2;Temp;Humidity;BMP_temperature;BMP_pressure;BME280_temperature;BME280_humidity;BME280_pressure;Samples;Min_cycle;Max_cycle;Signal;HPM_P1;HPM_P2
2023/01/29 00:01:05;;;;;;;40.25;15.77;;;;;;;3.71;58.76;99274.31;4365247;32;20173;-85
2023/01/29 00:03:32;;;;;;;39.10;16.10;;;;;;;3.77;58.35;99279.41;4364797;32;20095;-85
2023/01/29 00:05:58;;;;;;;36.35;15.85;;;;;;;3.48;59.05;99282.56;4363934;32;20176;-85
2023/01/29 00:08:23;;;;;;;37.33;16.27;;;;;;;3.83;58.25;99278.44;4364843;32;20444;-85
2023/01/29 00:10:49;;;;;;;40.70;16.23;;;;;;;3.82;58.40;99285.37;4364872;32;20420;-85
2023/01/29 00:13:14;;;;;;;36.97;15.60;;;;;;;3.91;58.20;99289.56;4376178;32;20157;-85
2023/01/29 00:15:40;;;;;;;38.28;15.60;;;;;;;4.17;57.45;99293.41;4364806;32;20122;-85
2023/01/29 00:18:05;;;;;;;41.08;16.50;;;;;;;4.32;57.30;99286.09;4364972;32;20460;-86
2023/01/29 00:20:31;;;;;;;39.20;16.85;;;;;;;4.46;57.13;99298.00;4364785;32;20117;-85
2023/01/29 00:22:56;;;;;;;37.65;15.82;;;;;;;4.52;56.79;99295.28;4364013;32;20150;-85
2023/01/29 00:25:21;;;;;;;41.78;16.87;;;;;;;4.50;56.91;99297.03;4365127;32;20432;-85
2023/01/29 00:27:47;;;;;;;42.42;17.12;;;;;;;4.31;56.67;99302.66;4365019;32;20095;-86
2023/01/29 00:30:15;;;;;;;41.80;17.20;;;;;;;4.10;57.25;99305.72;4365163;32;20103;-85
2023/01/29 00:32:40;;;;;;;39.38;16.00;;;;;;;3.48;58.45;99306.00;4364643;32;20258;-85
2023/01/29 00:35:07;;;;;;;40.17;16.27;;;;;;;3.82;58.06;99313.19;4364849;32;20468;-85
2023/01/29 00:37:32;;;;;;;41.50;16.77;;;;;;;4.16;56.96;99310.81;4375901;32;20525;-85
2023/01/29 00:39:58;;;;;;;39.33;16.80;;;;;;;4.05;57.18;99299.72;4364639;32;20083;-85
2023/01/29 00:45:08;;;;;;;39.63;16.67;;;;;;;3.83;58.15;99315.78;4364786;32;20182;-85
2023/01/29 00:47:33;;;;;;;40.83;16.08;;;;;;;3.65;58.77;99311.78;4364678;32;20090;-85
2023/01/29 00:50:04;;;;;;;38.60;15.10;;;;;;;3.79;58.28;99305.44;4363359;32;20152;-85
2023/01/29 00:52:30;;;;;;;44.63;17.95;;;;;;;4.00;57.80;99311.97;4364731;32;20083;-83
2023/01/29 00:54:57;;;;;;;39.22;16.75;;;;;;;3.88;58.26;99320.91;4364556;32;20496;-84
2023/01/29 00:57:25;;;;;;;43.25;17.17;;;;;;;3.99;57.88;99320.69;4375952;32;20165;-84
2023/01/29 00:59:51;;;;;;;37.70;15.82;;;;;;;3.68;58.85;99314.31;4364723;32;20113;-84
2023/01/29 01:05:04;;;;;;;38.20;16.10;;;;;;;3.92;58.01;99322.56;4364433;32;20146;-84
2023/01/29 01:07:30;;;;;;;38.72;16.02;;;;;;;3.88;58.09;99318.28;4364487;32;20460;-84
2023/01/29 01:12:40;;;;;;;39.22;16.20;;;;;;;3.91;58.01;99311.28;4364584;32;20125;-84
2023/01/29 01:15:06;;;;;;;40.67;17.50;;;;;;;3.72;58.50;99312.50;4364391;32;20491;-84
2023/01/29 01:17:31;;;;;;;40.80;15.80;;;;;;;3.84;57.96;99309.66;4363179;32;20111;-84
2023/01/29 01:19:56;;;;;;;42.33;16.62;;;;;;;3.84;57.99;99308.81;4375836;32;20087;-84
2023/01/29 01:22:22;;;;;;;39.55;15.70;;;;;;;3.88;57.90;99316.56;4364399;32;20103;-84
2023/01/29 01:24:47;;;;;;;40.12;16.35;;;;;;;3.66;58.43;99323.91;4364340;32;20113;-84
2023/01/29 01:27:13;;;;;;;39.80;16.77;;;;;;;3.81;58.02;99314.09;4375675;32;20125;-84
2023/01/29 01:29:39;;;;;;;40.55;17.60;;;;;;;3.88;57.77;99320.91;4364330;32;20199;-84
2023/01/29 01:32:05;;;;;;;42.30;16.62;;;;;;;3.13;59.45;99328.28;4363169;32;20166;-84
2023/01/29 01:34:30;;;;;;;40.15;16.52;;;;;;;2.85;61.02;99330.44;4364390;32;20380;-84
2023/01/29 01:36:56;;;;;;;36.45;16.12;;;;;;;2.95;60.64;99330.28;4363184;32;20099;-84
2023/01/29 01:39:22;;;;;;;42.38;16.67;;;;;;;3.32;59.36;99329.69;4364351;32;20098;-83
2023/01/29 01:41:48;;;;;;;41.03;16.60;;;;;;;3.14;59.82;99327.38;4363133;32;20116;-83
2023/01/29 01:45:09;;;;;;;44.13;17.30;;;;;;;3.01;60.25;99339.72;4364274;32;20144;-83
2023/01/29 01:47:41;;;;;;;39.33;16.52;;;;;;;3.26;59.45;99334.12;4318113;33;20138;-83
2023/01/29 01:50:14;;;;;;;41.58;16.45;;;;;;;3.03;60.19;99343.16;4305716;33;20184;-83
2023/01/29 01:52:43;;;;;;;40.17;16.65;;;;;;;2.88;60.18;99338.22;4305717;33;20453;-84
2023/01/29 01:55:12;;;;;;;36.80;15.70;;;;;;;3.15;59.89;99336.94;4317693;33;20472;-84
2023/01/29 01:57:37;;;;;;;40.10;16.37;;;;;;;2.85;61.06;99338.22;4317813;33;20224;-84
2023/01/29 02:00:11;;;;;;;39.28;16.23;;;;;;;2.83;60.98;99330.44;4317797;33;20131;-84
2023/01/29 02:10:53;;;;;;;42.65;17.92;;;;;;;2.80;61.30;99337.44;4307430;33;20139;-84
2023/01/29 02:13:19;;;;;;;42.53;17.67;;;;;;;3.25;59.80;99337.63;4317678;33;20115;-84
2023/01/29 02:15:47;;;;;;;40.63;16.20;;;;;;;3.25;59.58;99335.88;4305282;33;20151;-84
2023/01/29 02:18:17;;;;;;;40.20;16.92;;;;;;;3.10;60.07;99349.16;4317610;33;20113;-84
2023/01/29 02:20:49;;;;;;;40.22;17.25;;;;;;;3.33;59.28;99349.62;4324607;32;20112;-83
2023/01/29 02:23:51;;;;;;;40.12;15.27;;;;;;;3.39;58.82;99351.28;4350403;32;20153;-84
2023/01/29 02:26:28;;;;;;;41.80;15.63;;;;;;;3.41;58.58;99352.13;4363944;32;20490;-84
2023/01/29 02:29:26;;;;;;;39.67;16.17;;;;;;;3.23;58.75;99353.28;4364016;32;20091;-84
2023/01/29 02:32:29;;;;;;;41.33;14.73;;;;;;;2.95;59.61;99351.09;4363794;32;20527;-83
2023/01/29 02:35:30;;;;;;;38.80;15.57;;;;;;;2.78;59.61;99358.25;4362499;32;20178;-84
2023/01/29 02:38:17;;;;;;;39.38;15.55;;;;;;;2.32;61.07;99364.09;4362758;32;20395;-85
2023/01/29 02:40:49;;;;;;;42.65;16.23;;;;;;;2.25;61.65;99365.03;4363720;32;20175;-84
2023/01/29 02:43:30;;;;;;;39.67;16.30;;;;;;;2.47;61.23;99363.91;4362597;32;20459;-85
2023/01/29 02:46:16;;;;;;;37.28;14.77;;;;;;;2.69;60.51;99367.06;4362654;32;20099;-85
2023/01/29 02:48:58;;;;;;;36.20;13.93;;;;;;;2.20;62.01;99377.19;4363598;32;20486;-83
2023/01/29 02:51:31;;;;;;;34.63;15.57;;;;;;;2.14;61.86;99375.53;4362364;32;20529;-83
2023/01/29 02:53:58;;;;;;;37.67;15.45;;;;;;;2.00;62.58;99380.03;4362415;32;20516;-83
2023/01/29 02:56:34;;;;;;;32.15;14.13;;;;;;;1.93;63.06;99379.22;4362240;32;20532;-85
2023/01/29 02:59:05;;;;;;;37.20;15.27;;;;;;;1.44;64.81;99385.72;4362280;32;20373;-84
2023/01/29 03:01:35;;;;;;;35.42;14.23;;;;;;;1.64;64.25;99392.47;4374772;32;20111;-83
2023/01/29 03:04:09;;;;;;;41.97;15.30;;;;;;;2.33;62.08;99377.03;4362264;32;20121;-84
2023/01/29 03:06:37;;;;;;;35.85;14.30;;;;;;;2.59;61.34;99375.00;4363834;32;20423;-84
2023/01/29 03:09:28;;;;;;;34.33;13.88;;;;;;;2.75;60.95;99371.31;4365342;32;20099;-82
2023/01/29 03:11:57;;;;;;;33.38;13.23;;;;;;;2.78;60.83;99376.47;4365159;32;20409;-82
2023/01/29 03:15:17;;;;;;;38.28;14.65;;;;;;;2.99;60.47;99379.66;4364231;32;20452;-82
2023/01/29 03:17:26;;;;;;;35.28;13.43;;;;;;;3.23;60.00;99383.66;4360165;32;20086;-82
2023/01/29 03:19:52;;;;;;;33.53;13.48;;;;;;;2.73;60.73;99378.28;4363975;32;20377;-82
2023/01/29 03:22:20;;;;;;;31.90;12.75;;;;;;;3.17;59.79;99382.00;4365207;32;20153;-82
2023/01/29 03:33:20;;;;;;;37.38;13.40;;;;;;;2.92;59.82;99384.97;4374828;32;20598;-83
2023/01/29 03:35:59;;;;;;;35.33;14.20;;;;;;;2.87;60.64;99388.50;4363947;32;20109;-84
2023/01/29 03:38:28;;;;;;;34.67;13.73;;;;;;;2.97;60.33;99386.63;4365183;32;20103;-84
2023/01/29 03:41:07;;;;;;;33.25;13.57;;;;;;;2.99;60.28;99393.53;4365104;32;20099;-84
2023/01/29 03:43:42;;;;;;;33.85;13.68;;;;;;;3.15;59.66;99391.59;4363992;32;20178;-84
2023/01/29 03:46:17;;;;;;;35.80;13.62;;;;;;;3.35;58.96;99396.50;4363952;32;20082;-84
2023/01/29 03:48:56;;;;;;;31.30;13.57;;;;;;;2.88;59.63;99396.31;4364190;32;20105;-84
2023/01/29 03:51:26;;;;;;;33.90;13.43;;;;;;;3.06;59.40;99408.19;4365254;32;20095;-84
2023/01/29 03:54:04;;;;;;;37.38;13.88;;;;;;;2.68;60.67;99411.31;4365096;32;20117;-84
2023/01/29 03:56:32;;;;;;;32.08;12.37;;;;;;;2.73;61.07;99401.72;4364906;32;20083;-84
2023/01/29 03:58:57;;;;;;;;;;;;;;;2.90;60.69;99393.69;4365382;32;20090;-85
2023/01/29 04:01:43;;;;;;;33.33;13.65;;;;;;;3.22;59.85;99394.94;4365221;32;19994;-84
2023/01/29 04:04:23;;;;;;;34.15;13.20;;;;;;;3.23;59.50;99396.69;4363774;32;20122;-84
2023/01/29 04:06:51;;;;;;;32.30;12.48;;;;;;;3.22;59.47;99394.94;4363811;32;20415;-84
2023/01/29 04:09:23;;;;;;;;;;;;;;;3.08;59.08;99389.97;4364190;32;20079;-84
2023/01/29 04:11:54;;;;;;;31.15;12.20;;;;;;;2.68;60.17;99390.50;4364959;32;19978;-84
2023/01/29 04:14:20;;;;;;;32.95;12.02;;;;;;;2.87;59.41;99388.50;4363769;32;20115;-84
2023/01/29 04:16:49;;;;;;;31.45;11.77;;;;;;;2.89;59.49;99390.19;4364001;32;20459;-84
2023/01/29 04:19:14;;;;;;;27.42;11.55;;;;;;;2.56;59.97;99399.31;4364904;32;20079;-84
2023/01/29 04:21:40;;;;;;;28.90;11.12;;;;;;;2.84;59.68;99397.22;4363747;32;20165;-84
2023/01/29 04:24:06;;;;;;;30.50;12.05;;;;;;;3.20;58.33;99394.13;4364701;32;20150;-84
2023/01/29 04:26:39;;;;;;;27.30;11.15;;;;;;;3.48;57.59;99394.56;4364818;32;20122;-84
2023/01/29 04:29:08;;;;;;;27.13;10.52;;;;;;;3.46;57.42;99383.31;4364794;32;20549;-84
2023/01/29 04:32:06;;;;;;;26.90;10.43;;;;;;;3.26;57.93;99386.22;4351077;32;20159;-84
2023/01/29 04:34:37;;;;;;;24.02;10.10;;;;;;;3.37;57.36;99384.31;4364716;32;20107;-84
2023/01/29 04:37:08;;;;;;;26.55;9.80;;;;;;;3.04;58.60;99386.53;4364763;32;20113;-84
2023/01/29 04:39:57;;;;;;;24.08;9.25;;;;;;;3.17;58.14;99388.94;4364694;32;20079;-85
2023/01/29 04:42:47;;;;;;;23.05;8.88;;;;;;;3.29;57.80;99394.84;4363566;32;20126;-84
2023/01/29 04:45:23;;;;;;;27.37;10.23;;;;;;;3.15;58.24;99397.66;4363639;32;20170;-85
2023/01/29 04:48:16;;;;;;;26.37;10.00;;;;;;;2.93;58.73;99393.63;4364828;32;20109;-84
2023/01/29 04:50:57;;;;;;;25.25;10.02;;;;;;;2.83;58.68;99400.69;4364620;32;20083;-85
2023/01/29 04:53:48;;;;;;;27.58;9.98;;;;;;;2.69;59.36;99393.06;4364682;32;20099;-85
2023/01/29 04:56:14;;;;;;;21.42;9.20;;;;;;;2.93;58.41;99391.87;4364663;32;20091;-85
2023/01/29 04:58:44;;;;;;;24.52;9.55;;;;;;;2.67;59.15;99404.41;4364645;32;20126;-84
2023/01/29 05:01:15;;;;;;;27.75;9.30;;;;;;;2.93;58.23;99396.22;4363809;32;20235;-84
2023/01/29 05:03:43;;;;;;;25.20;8.90;;;;;;;2.94;58.49;99390.16;4363631;32;20173;-84
2023/01/29 05:06:09;;;;;;;24.30;8.68;;;;;;;3.15;57.76;99389.84;4364941;32;20098;-84
2023/01/29 05:08:36;;;;;;;24.58;9.10;;;;;;;2.39;58.70;99394.31;4363475;32;20091;-84
2023/01/29 05:11:02;;;;;;;25.50;9.60;;;;;;;2.55;59.07;99392.41;4363367;32;20428;-84
2023/01/29 05:13:28;;;;;;;23.10;9.10;;;;;;;2.65;58.59;99391.41;4364495;32;20126;-84
2023/01/29 05:16:07;;;;;;;23.80;9.48;;;;;;;2.71;58.21;99398.28;4363302;32;20141;-83
2023/01/29 05:18:33;;;;;;;25.58;9.85;;;;;;;2.34;58.98;99388.31;4364479;32;20435;-83
2023/01/29 05:21:03;;;;;;;23.98;8.52;;;;;;;2.49;59.01;99397.66;4363416;32;20102;-83
2023/01/29 05:23:28;;;;;;;26.73;9.07;;;;;;;2.22;59.46;99398.84;4363446;32;20143;-84
2023/01/29 05:25:55;;;;;;;25.62;9.90;;;;;;;2.79;58.14;99391.22;4364468;32;20117;-83
2023/01/29 05:28:21;;;;;;;25.63;9.17;;;;;;;3.17;56.88;99387.22;4362825;32;20128;-82
2023/01/29 05:30:51;;;;;;;25.05;8.85;;;;;;;2.76;57.52;99393.84;4363324;32;20102;-82
2023/01/29 05:33:24;;;;;;;25.98;9.82;;;;;;;3.14;56.59;99388.09;4350795;32;20184;-82
2023/01/29 05:35:50;;;;;;;28.20;9.73;;;;;;;3.31;55.64;99381.81;4364486;32;20087;-82
2023/01/29 05:38:16;;;;;;;23.33;8.48;;;;;;;3.00;56.18;99386.63;4363260;32;20190;-85
2023/01/29 05:40:42;;;;;;;26.02;9.57;;;;;;;2.77;57.28;99398.19;4363270;32;20113;-84
2023/01/29 05:43:22;;;;;;;24.40;8.68;;;;;;;2.59;57.90;99395.81;4364444;32;20087;-84
2023/01/29 05:45:55;;;;;;;24.58;9.25;;;;;;;2.52;58.28;99389.84;4363355;32;20475;-84
2023/01/29 05:48:22;;;;;;;23.35;8.98;;;;;;;2.30;58.31;99397.03;4364707;32;20091;-84
2023/01/29 05:50:47;;;;;;;24.08;9.07;;;;;;;2.80;57.41;99389.47;4375835;32;20098;-84
2023/01/29 05:53:13;;;;;;;25.70;9.63;;;;;;;2.71;57.49;99396.53;4375487;32;20129;-84
2023/01/29 05:55:38;;;;;;;26.85;10.80;;;;;;;2.58;57.72;99396.69;4364103;32;20436;-84
2023/01/29 05:58:03;;;;;;;26.70;9.40;;;;;;;2.41;58.34;99397.75;4364417;32;20087;-84
2023/01/29 06:00:29;;;;;;;25.35;9.73;;;;;;;2.56;57.80;99402.78;4364165;32;20147;-84
2023/01/29 06:02:55;;;;;;;26.60;9.02;;;;;;;2.41;58.55;99399.50;4363024;32;20362;-83
2023/01/29 06:05:21;;;;;;;23.33;8.77;;;;;;;1.77;60.81;99414.87;4364024;32;20098;-82
2023/01/29 06:07:46;;;;;;;28.65;9.30;;;;;;;2.17;59.90;99412.75;4362903;32;20372;-83
2023/01/29 06:10:14;;;;;;;23.90;9.20;;;;;;;2.21;59.73;99413.59;4363967;32;20107;-82
2023/01/29 06:12:40;;;;;;;27.10;9.68;;;;;;;2.10;60.14;99412.81;4364107;32;20122;-82
2023/01/29 06:15:06;;;;;;;25.73;9.00;;;;;;;2.00;60.70;99413.81;4364017;32;20659;-83
2023/01/29 06:17:31;;;;;;;26.00;9.63;;;;;;;2.60;59.06;99419.19;4364168;32;20079;-83
2023/01/29 06:19:57;;;;;;;23.55;9.32;;;;;;;2.70;58.68;99412.16;4364037;32;20087;-83
2023/01/29 06:22:22;;;;;;;25.62;9.93;;;;;;;2.31;59.42;99419.53;4363939;32;20094;-82
2023/01/29 06:24:47;;;;;;;25.37;10.48;;;;;;;2.07;60.78;99428.47;4364094;32;20082;-82
2023/01/29 06:27:13;;;;;;;25.58;9.68;;;;;;;2.04;61.36;99429.34;4363918;32;20087;-82
2023/01/29 06:29:38;;;;;;;22.05;8.90;;;;;;;2.25;60.68;99441.25;4363949;32;20139;-84
2023/01/29 06:32:04;;;;;;;23.02;10.07;;;;;;;2.13;61.03;99437.06;4363876;32;20099;-83
2023/01/29 06:34:29;;;;;;;23.35;9.95;;;;;;;1.80;62.15;99448.62;4363750;32;20090;-83
2023/01/29 06:36:55;;;;;;;22.77;10.07;;;;;;;1.68;62.85;99465.19;4363716;32;20091;-87
2023/01/29 06:39:20;;;;;;;27.33;11.12;;;;;;;1.93;62.54;99462.34;4363419;32;20122;-87
2023/01/29 06:41:46;;;;;;;27.67;10.35;;;;;;;1.78;63.31;99463.38;4361836;32;20126;-88
2023/01/29 06:44:11;;;;;;;24.77;10.15;;;;;;;1.77;63.05;99465.06;4362498;32;20170;-89
2023/01/29 06:46:37;;;;;;;24.00;9.70;;;;;;;2.11;62.21;99467.41;4363662;32;20091;-89
2023/01/29 06:49:02;;;;;;;24.08;10.63;;;;;;;2.04;62.33;99468.31;4362469;32;20084;-89
2023/01/29 06:51:28;;;;;;;23.62;10.35;;;;;;;2.09;62.02;99473.50;4362282;32;20134;-88
2023/01/29 06:53:54;;;;;;;24.85;9.88;;;;;;;1.32;64.12;99476.66;4363537;32;20114;-88
2023/01/29 06:56:20;;;;;;;22.00;8.90;;;;;;;2.07;62.41;99468.31;4363579;32;20071;-89
2023/01/29 06:58:46;;;;;;;23.95;9.32;;;;;;;2.35;60.94;99474.06;4362558;32;20404;-88
2023/01/29 07:01:12;;;;;;;24.52;9.77;;;;;;;1.63;62.78;99474.72;4363790;32;20114;-89
2023/01/29 07:03:37;;;;;;;23.42;9.77;;;;;;;2.11;61.52;99470.00;4363563;32;20136;-89
2023/01/29 07:06:03;;;;;;;21.15;9.07;;;;;;;1.99;61.91;99471.84;4363646;32;20109;-88
2023/01/29 07:08:29;;;;;;;23.87;9.63;;;;;;;2.52;60.22;99455.69;4362552;32;20083;-89
2023/01/29 07:11:01;;;;;;;21.92;9.63;;;;;;;2.33;60.58;99467.19;4363341;32;20137;-88
2023/01/29 07:13:26;;;;;;;21.33;8.18;;;;;;;2.16;61.27;99469.94;4363497;32;20571;-88
2023/01/29 07:15:52;;;;;;;21.55;8.55;;;;;;;2.27;61.02;99465.50;4363274;32;20091;-90
2023/01/29 07:18:17;;;;;;;24.25;9.50;;;;;;;1.90;62.10;99473.66;4363222;32;20108;-88
2023/01/29 07:20:42;;;;;;;23.42;8.65;;;;;;;2.23;61.00;99466.41;4363325;32;20126;-88
2023/01/29 07:23:11;;;;;;;21.83;8.38;;;;;;;2.31;60.70;99463.75;4363093;32;20082;-89
2023/01/29 07:25:37;;;;;;;21.50;8.38;;;;;;;2.07;61.21;99454.47;4361952;32;20146;-88
2023/01/29 07:28:03;;;;;;;20.20;8.13;;;;;;;2.63;59.86;99458.19;4361992;32;20105;-88
2023/01/29 07:30:28;;;;;;;20.37;8.52;;;;;;;2.66;59.58;99452.94;4363020;32;20428;-85
2023/01/29 07:32:54;;;;;;;20.67;8.73;;;;;;;2.27;60.36;99446.44;4362996;32;20095;-84
2023/01/29 07:35:19;;;;;;;22.45;8.63;;;;;;;2.12;60.87;99448.31;4362916;32;20079;-86
2023/01/29 07:37:48;;;;;;;23.50;9.15;;;;;;;2.55;59.91;99437.47;4362888;32;20137;-83
2023/01/29 07:40:14;;;;;;;21.67;8.88;;;;;;;2.16;60.60;99444.84;4361853;32;20114;-85
2023/01/29 07:42:42;;;;;;;22.42;8.57;;;;;;;2.16;60.78;99444.84;4362916;32;20379;-86
2023/01/29 07:45:09;;;;;;;22.27;8.48;;;;;;;2.39;60.03;99428.09;4362946;32;20436;-85
2023/01/29 07:47:34;;;;;;;19.92;8.27;;;;;;;2.37;59.62;99429.87;4361592;32;20079;-87
2023/01/29 07:50:00;;;;;;;21.00;7.68;;;;;;;2.50;59.49;99426.25;4362838;32;20197;-86
2023/01/29 07:52:25;;;;;;;19.17;7.47;;;;;;;2.28;59.69;99432.56;4364299;32;20091;-86
2023/01/29 07:54:51;;;;;;;20.15;7.75;;;;;;;2.28;59.70;99432.56;4376245;32;20091;-86
2023/01/29 07:57:16;;;;;;;22.13;8.55;;;;;;;2.48;59.20;99441.00;4376216;32;20095;-86
2023/01/29 07:59:42;;;;;;;18.08;7.10;;;;;;;2.00;60.77;99450.19;4365034;32;20365;-86
2023/01/29 08:02:08;;;;;;;21.60;8.43;;;;;;;2.89;58.21;99433.59;4364958;32;20098;-85
2023/01/29 08:04:33;;;;;;;18.40;7.78;;;;;;;2.43;58.86;99437.59;4364842;32;20114;-87
2023/01/29 08:06:59;;;;;;;20.62;7.80;;;;;;;2.85;57.80;99432.75;4364960;32;20103;-85
2023/01/29 08:09:24;;;;;;;22.37;7.85;;;;;;;2.80;58.10;99433.69;4364991;32;20149;-81
2023/01/29 08:11:50;;;;;;;18.80;7.35;;;;;;;2.10;60.35;99446.63;4364876;32;20615;-81
2023/01/29 08:14:15;;;;;;;20.27;7.68;;;;;;;2.52;58.83;99439.25;4364876;32;20175;-81
2023/01/29 08:16:40;;;;;;;20.58;7.22;;;;;;;2.33;58.94;99439.44;4364715;32;20095;-81
2023/01/29 08:19:06;;;;;;;19.48;7.47;;;;;;;2.69;58.24;99431.25;4364721;32;20099;-82
2023/01/29 08:21:31;;;;;;;19.92;7.90;;;;;;;2.48;58.68;99433.22;4364726;32;20479;-81
2023/01/29 08:23:56;;;;;;;22.23;7.18;;;;;;;2.46;58.44;99434.12;4363468;32;20108;-81
2023/01/29 08:26:22;;;;;;;18.23;7.00;;;;;;;3.03;57.43;99442.06;4364843;32;20086;-81
2023/01/29 08:28:47;;;;;;;17.48;7.12;;;;;;;3.41;56.38;99445.03;4375960;32;20103;-81
2023/01/29 08:31:14;;;;;;;19.33;7.90;;;;;;;3.51;55.40;99439.63;4364813;32;20086;-79
2023/01/29 08:33:40;;;;;;;20.63;7.33;;;;;;;3.26;55.96;99449.56;4361277;32;20292;-82
2023/01/29 08:36:07;;;;;;;19.02;6.85;;;;;;;2.92;57.34;99462.19;4361758;32;20224;-83
2023/01/29 08:38:32;;;;;;;19.23;7.85;;;;;;;3.28;56.38;99447.81;4372976;32;20146;-83
2023/01/29 08:40:57;;;;;;;18.35;6.87;;;;;;;3.06;56.64;99451.59;4369749;32;20498;-83
2023/01/29 08:43:23;;;;;;;18.55;7.10;;;;;;;2.93;56.99;99459.53;4361723;32;20121;-83
2023/01/29 08:45:48;;;;;;;19.15;7.07;;;;;;;2.40;57.93;99468.84;4361326;32;20087;-83
2023/01/29 08:48:14;;;;;;;18.02;6.28;;;;;;;1.87;59.32;99478.84;4362728;32;20125;-82
2023/01/29 08:50:39;;;;;;;19.67;7.30;;;;;;;1.36;61.11;99483.56;4362344;32;20083;-84
2023/01/29 08:53:06;;;;;;;16.02;6.00;;;;;;;1.67;59.70;99491.16;4368923;32;20595;-82
2023/01/29 08:55:35;;;;;;;16.98;6.60;;;;;;;1.96;58.99;99488.31;4361649;32;20102;-84
2023/01/29 08:58:01;;;;;;;18.62;7.12;;;;;;;2.03;58.99;99495.19;4361179;32;20125;-82
2023/01/29 09:00:27;;;;;;;16.98;6.45;;;;;;;1.82;59.21;99504.03;4359552;32;20117;-83
2023/01/29 09:02:52;;;;;;;17.40;5.93;;;;;;;2.14;58.66;99505.47;4359813;32;20508;-83
2023/01/29 09:05:18;;;;;;;16.00;6.20;;;;;;;1.81;59.05;99510.09;4362185;32;20181;-84
2023/01/29 09:07:43;;;;;;;16.83;6.18;;;;;;;1.82;59.00;99501.44;4361600;32;20117;-85
2023/01/29 09:10:10;;;;;;;20.25;6.93;;;;;;;2.10;58.38;99507.25;4362505;32;20099;-83
2023/01/29 09:12:36;;;;;;;17.40;6.23;;;;;;;2.11;58.26;99500.34;4361435;32;20153;-83
2023/01/29 09:15:01;;;;;;;15.73;6.00;;;;;;;2.54;57.40;99495.56;4362544;32;20079;-81
2023/01/29 09:17:26;;;;;;;20.20;6.53;;;;;;;2.31;57.51;99494.94;4358752;32;20161;-82
2023/01/29 09:19:52;;;;;;;17.45;6.25;;;;;;;1.89;58.27;99502.22;4360873;32;20091;-82
2023/01/29 09:22:18;;;;;;;16.67;6.62;;;;;;;2.17;57.35;99495.94;4359552;32;20091;-83
2023/01/29 09:24:43;;;;;;;15.15;5.93;;;;;;;2.13;57.50;99493.38;4350095;32;20095;-84
2023/01/29 09:27:09;;;;;;;15.35;5.93;;;;;;;2.29;57.21;99492.34;4360465;32;20175;-84
2023/01/29 09:29:35;;;;;;;16.60;6.03;;;;;;;2.27;57.17;99496.69;4365804;32;20137;-82
2023/01/29 09:32:00;;;;;;;17.70;6.15;;;;;;;2.38;56.49;99491.41;4360079;32;20137;-84
2023/01/29 09:34:26;;;;;;;18.17;6.85;;;;;;;2.09;57.41;99497.75;4361785;32;20083;-86
2023/01/29 09:36:51;;;;;;;16.30;6.07;;;;;;;1.58;58.72;99510.25;4361350;32;20150;-85
2023/01/29 09:39:18;;;;;;;18.20;6.50;;;;;;;1.90;57.75;99510.03;4362698;32;20102;-96
2023/01/29 09:41:43;;;;;;;17.37;6.37;;;;;;;2.26;56.97;99505.41;4363643;32;20176;-93
2023/01/29 09:44:16;;;;;;;15.60;5.82;;;;;;;2.07;57.61;99503.84;4363797;32;20413;-89
2023/01/29 09:46:43;;;;;;;17.12;6.62;;;;;;;2.13;56.96;99514.19;4363172;32;20126;-93
2023/01/29 09:49:24;;;;;;;17.00;6.62;;;;;;;2.38;56.25;99507.00;4361561;32;20107;-92
2023/01/29 09:51:58;;;;;;;17.25;6.00;;;;;;;1.69;57.87;99513.63;4362494;32;20094;-94
2023/01/29 09:54:30;;;;;;;17.08;6.03;;;;;;;1.68;58.15;99513.63;4361850;32;20091;-92
2023/01/29 09:56:56;;;;;;;15.73;5.45;;;;;;;2.53;55.66;99516.38;4361246;32;20099;-92
2023/01/29 09:59:24;;;;;;;17.95;5.93;;;;;;;2.14;56.67;99511.56;4358425;32;20111;-85
2023/01/29 10:01:58;;;;;;;17.27;6.22;;;;;;;2.67;54.91;99511.06;4356278;32;20121;-84
2023/01/29 10:04:40;;;;;;;16.27;6.05;;;;;;;2.18;56.02;99514.97;4357751;32;20102;-87
2023/01/29 10:07:11;;;;;;;16.15;5.50;;;;;;;1.97;56.46;99523.84;4360297;32;20137;-82
2023/01/29 10:09:48;;;;;;;15.35;5.00;;;;;;;2.53;55.29;99514.66;4369535;32;20141;-81
2023/01/29 10:12:18;;;;;;;15.63;5.35;;;;;;;2.00;56.37;99513.41;4359028;32;20100;-86
2023/01/29 10:15:12;;;;;;;16.73;6.25;;;;;;;1.95;56.97;99523.84;4357390;32;20095;-84
2023/01/29 10:18:13;;;;;;;15.63;5.72;;;;;;;2.37;55.36;99521.72;4358488;32;20945;-88
2023/01/29 10:21:00;;;;;;;15.48;5.78;;;;;;;2.31;54.90;99510.53;4329838;33;20111;-88
2023/01/29 10:23:30;;;;;;;13.70;5.00;;;;;;;3.04;53.71;99510.63;4327583;33;20087;-88
2023/01/29 10:25:56;;;;;;;17.77;5.50;;;;;;;2.36;54.66;99519.16;4341999;33;20158;-86
2023/01/29 10:28:30;;;;;;;14.23;5.25;;;;;;;2.34;54.63;99505.31;4328674;33;20266;-87
2023/01/29 10:31:03;;;;;;;15.57;5.57;;;;;;;2.10;55.20;99512.44;4328260;33;20142;-88
2023/01/29 10:33:32;;;;;;;13.30;5.10;;;;;;;2.07;55.19;99511.63;4315207;33;20198;-89
2023/01/29 10:36:02;;;;;;;14.43;5.35;;;;;;;1.91;55.56;99518.66;4323594;33;20103;-86
2023/01/29 10:38:39;;;;;;;14.93;5.20;;;;;;;2.07;55.23;99517.69;4315606;33;20104;-86
2023/01/29 10:41:13;;;;;;;16.98;5.28;;;;;;;1.96;55.03;99511.72;4341634;33;20125;-87
2023/01/29 10:44:08;;;;;;;14.32;4.93;;;;;;;1.29;56.63;99516.47;4342053;33;20708;-84
2023/01/29 10:46:51;;;;;;;14.18;5.57;;;;;;;2.02;54.73;99511.66;4329873;33;20100;-87
2023/01/29 10:49:40;;;;;;;14.70;5.45;;;;;;;2.15;54.06;99505.47;4329193;33;20103;-88
2023/01/29 10:52:11;;;;;;;15.82;5.18;;;;;;;2.29;53.53;99501.88;4329514;33;20447;-86
2023/01/29 10:54:54;;;;;;;14.20;5.56;;;;;;;2.54;52.81;99498.16;4328686;33;20123;-85
2023/01/29 10:57:41;;;;;;;16.20;6.07;;;;;;;2.19;53.43;99497.66;4381385;32;20518;-87
2023/01/29 11:00:20;;;;;;;17.85;5.78;;;;;;;1.89;54.54;99503.13;4357708;32;20091;-82
2023/01/29 11:02:48;;;;;;;16.10;5.43;;;;;;;2.41;52.69;99488.75;4350303;32;20103;-82
2023/01/29 11:05:34;;;;;;;15.00;5.50;;;;;;;2.08;52.98;99474.34;4369499;32;20114;-83
2023/01/29 11:08:10;;;;;;;13.57;5.05;;;;;;;2.72;51.98;99465.91;4380617;32;20118;-82
2023/01/29 11:10:57;;;;;;;13.95;4.90;;;;;;;2.64;52.40;99469.44;4359518;32;20106;-83
2023/01/29 11:13:27;;;;;;;16.52;5.62;;;;;;;2.48;52.46;99474.81;4369364;32;20122;-84
2023/01/29 11:15:53;;;;;;;16.25;5.68;;;;;;;2.23;52.45;99478.56;4359302;32;20584;-83
2023/01/29 11:18:18;;;;;;;14.35;5.35;;;;;;;2.31;52.58;99474.13;4359972;32;20088;-82
2023/01/29 11:20:44;;;;;;;13.70;4.60;;;;;;;1.84;53.26;99475.44;4370005;32;20119;-82
2023/01/29 11:23:25;;;;;;;14.32;5.00;;;;;;;2.15;52.71;99466.50;4374590;32;20095;-83
2023/01/29 11:25:52;;;;;;;14.32;5.18;;;;;;;2.70;51.50;99443.38;4369072;32;20175;-83
2023/01/29 11:28:34;;;;;;;14.30;5.15;;;;;;;2.93;50.60;99436.13;4361913;32;20238;-84
2023/01/29 11:31:00;;;;;;;15.50;5.20;;;;;;;2.40;51.78;99455.00;4362592;32;20115;-84
2023/01/29 11:33:27;;;;;;;15.38;5.60;;;;;;;2.74;50.63;99442.44;4361464;32;20177;-83
2023/01/29 11:35:54;;;;;;;14.20;5.25;;;;;;;2.70;50.59;99445.97;4362416;32;20201;-84
2023/01/29 11:38:22;;;;;;;12.60;4.90;;;;;;;2.29;51.00;99448.16;4359905;32;20471;-84
2023/01/29 11:40:48;;;;;;;16.62;5.22;;;;;;;2.44;50.37;99435.88;4363006;32;20098;-85
2023/01/29 11:43:17;;;;;;;13.75;5.37;;;;;;;2.39;50.76;99435.06;4369600;32;20088;-86
2023/01/29 11:45:43;;;;;;;14.18;5.00;;;;;;;2.95;49.68;99415.28;4378368;32;20357;-84
2023/01/29 11:48:20;;;;;;;15.25;4.85;;;;;;;2.40;50.60;99424.66;4361185;32;20114;-84
2023/01/29 11:50:59;;;;;;;13.57;5.00;;;;;;;2.51;49.55;99408.91;4362913;32;20462;-83
2023/01/29 11:53:35;;;;;;;14.32;5.00;;;;;;;2.56;49.48;99407.13;4371613;32;20099;-82
2023/01/29 11:56:15;;;;;;;16.15;5.05;;;;;;;2.72;49.98;99393.06;4354826;32;20174;-82
2023/01/29 11:58:41;;;;;;;15.50;5.70;;;;;;;2.70;48.81;99392.19;4349774;32;20115;-79
2023/01/29 12:01:06;;;;;;;15.05;5.32;;;;;;;2.85;48.29;99385.06;4361613;32;20353;-81
2023/01/29 12:03:42;;;;;;;12.50;4.80;;;;;;;3.31;47.42;99389.63;4363352;32;20109;-80
2023/01/29 12:06:20;;;;;;;14.13;5.05;;;;;;;3.20;47.20;99387.16;4361323;32;20095;-81
2023/01/29 12:08:59;;;;;;;14.52;5.25;;;;;;;2.50;48.68;99394.19;4378308;32;20110;-80
2023/01/29 12:11:27;;;;;;;;;;;;;;;2.91;47.63;99404.06;4360502;32;20749;-78